createdAt,value
2023-03-13T00:01:30.750Z,3.80
2023-03-13T00:03:57.575Z,2.85
2023-03-13T00:06:26.105Z,2.65
2023-03-13T00:08:52.872Z,3.05
2023-03-13T00:11:19.602Z,2.60
2023-03-13T00:13:46.446Z,3.35
2023-03-13T00:16:15.252Z,2.38
2023-03-13T00:18:47.158Z,2.88
2023-03-13T00:21:13.826Z,3.17
2023-03-13T00:23:40.573Z,3.05
2023-03-13T00:26:09.333Z,3.30
2023-03-13T00:28:36.959Z,3.88
2023-03-13T00:31:08.963Z,2.83
2023-03-13T00:33:36.590Z,3.00
2023-03-13T00:36:06.066Z,1.88
2023-03-13T00:38:33.113Z,3.13
2023-03-13T00:41:01.363Z,2.88
2023-03-13T00:43:28.550Z,2.53
2023-03-13T00:45:55.375Z,2.70
2023-03-13T00:48:22.514Z,2.10
2023-03-13T00:50:49.324Z,3.08
2023-03-13T00:53:16.405Z,2.58
2023-03-13T00:55:56.173Z,2.58
2023-03-13T00:58:23.646Z,2.22
2023-03-13T01:00:50.561Z,2.53
2023-03-13T01:03:17.636Z,2.38
2023-03-13T01:05:44.342Z,2.40
2023-03-13T01:08:11.069Z,3.67
2023-03-13T01:10:37.715Z,2.53
2023-03-13T01:13:05.514Z,3.45
2023-03-13T01:15:35.400Z,2.58
2023-03-13T01:18:02.499Z,2.00
2023-03-13T01:20:30.593Z,2.80
2023-03-13T01:22:57.346Z,2.70
2023-03-13T01:25:23.991Z,2.60
2023-03-13T01:27:50.670Z,2.78
2023-03-13T01:30:17.655Z,2.53
2023-03-13T01:32:44.362Z,2.25
2023-03-13T01:35:11.098Z,2.45
2023-03-13T01:37:37.797Z,1.80
2023-03-13T01:40:04.929Z,2.60
2023-03-13T01:42:31.623Z,2.70
2023-03-13T01:44:58.337Z,2.53
2023-03-13T01:47:25.045Z,2.30
2023-03-13T01:49:51.700Z,2.55
2023-03-13T01:52:28.215Z,2.45
2023-03-13T01:55:03.862Z,2.40
2023-03-13T01:57:34.742Z,2.63
2023-03-13T02:00:12.389Z,1.85
2023-03-13T02:02:40.735Z,3.17
2023-03-13T02:05:07.716Z,2.15
2023-03-13T02:07:42.266Z,2.30
2023-03-13T02:10:11.936Z,2.60
2023-03-13T02:12:39.896Z,1.45
2023-03-13T02:15:15.740Z,1.75
2023-03-13T02:17:42.549Z,1.80
2023-03-13T02:20:10.498Z,1.75
2023-03-13T02:22:46.236Z,2.05
2023-03-13T02:25:19.174Z,1.13
2023-03-13T02:27:45.954Z,1.30
2023-03-13T02:30:13.532Z,1.60
2023-03-13T02:32:40.668Z,2.05
2023-03-13T02:35:13.116Z,1.38
2023-03-13T02:37:40.976Z,1.83
2023-03-13T02:40:11.378Z,1.52
2023-03-13T02:42:42.450Z,1.95
2023-03-13T02:45:10.484Z,2.17
2023-03-13T02:47:37.466Z,1.88
2023-03-13T02:50:07.760Z,1.50
2023-03-13T02:52:38.957Z,1.80
2023-03-13T02:55:09.194Z,2.10
2023-03-13T02:57:36.085Z,1.50
2023-03-13T03:00:06.669Z,1.73
2023-03-13T03:02:33.472Z,1.60
2023-03-13T03:05:00.172Z,1.92
2023-03-13T03:07:27.047Z,1.70
2023-03-13T03:09:53.842Z,1.45
2023-03-13T03:12:20.634Z,1.80
2023-03-13T03:14:47.439Z,1.35
2023-03-13T03:17:14.205Z,1.15
2023-03-13T03:19:40.890Z,1.60
2023-03-13T03:22:07.649Z,1.27
2023-03-13T03:24:34.428Z,2.22
2023-03-13T03:27:01.300Z,1.10
2023-03-13T03:29:28.185Z,1.15
2023-03-13T03:31:55.194Z,1.15
2023-03-13T03:34:22.111Z,1.40
2023-03-13T03:36:48.871Z,1.83
2023-03-13T03:39:15.590Z,1.52
2023-03-13T03:41:42.298Z,0.85
2023-03-13T03:44:09.103Z,0.90
2023-03-13T03:46:35.789Z,1.92
2023-03-13T03:49:02.547Z,1.45
2023-03-13T03:51:29.253Z,1.17
2023-03-13T03:53:56.015Z,1.27
2023-03-13T03:56:22.761Z,1.45
2023-03-13T03:58:49.478Z,0.90
2023-03-13T04:01:16.182Z,0.85
2023-03-13T04:03:43.031Z,1.10
2023-03-13T04:06:10.235Z,0.90
2023-03-13T04:08:37.021Z,1.13
2023-03-13T04:11:03.877Z,1.42
2023-03-13T04:13:30.582Z,0.80
2023-03-13T04:15:57.269Z,0.85
2023-03-13T04:18:23.990Z,0.95
2023-03-13T04:20:50.667Z,0.88
2023-03-13T04:23:17.391Z,1.10
2023-03-13T04:25:44.097Z,1.75
2023-03-13T04:28:10.829Z,1.08
2023-03-13T04:30:37.641Z,1.17
2023-03-13T04:33:04.428Z,0.70
2023-03-13T04:35:32.314Z,0.70
2023-03-13T04:38:01.229Z,1.10
2023-03-13T04:40:27.876Z,0.70
2023-03-13T04:42:54.689Z,0.60
2023-03-13T04:45:21.454Z,0.40
2023-03-13T04:47:48.192Z,0.30
2023-03-13T04:50:15.237Z,0.80
2023-03-13T04:52:41.929Z,0.40
2023-03-13T04:55:09.113Z,0.47
2023-03-13T04:57:35.819Z,0.60
2023-03-13T05:00:02.541Z,0.52
2023-03-13T05:02:29.285Z,0.40
2023-03-13T05:04:56.005Z,1.60
2023-03-13T05:07:22.782Z,0.60
2023-03-13T05:09:49.453Z,0.47
2023-03-13T05:12:16.319Z,0.50
2023-03-13T05:14:43.032Z,0.40
2023-03-13T05:17:11.033Z,0.55
2023-03-13T05:19:37.695Z,0.47
2023-03-13T05:22:04.709Z,0.50
2023-03-13T05:24:31.357Z,0.50
2023-03-13T05:26:58.073Z,0.52
2023-03-13T05:29:24.894Z,0.50
2023-03-13T05:31:51.592Z,0.40
2023-03-13T05:34:18.382Z,0.70
2023-03-13T05:36:45.104Z,0.50
2023-03-13T05:39:11.868Z,0.70
2023-03-13T05:41:38.704Z,0.50
2023-03-13T05:44:05.643Z,0.32
2023-03-13T05:46:32.757Z,0.52
2023-03-13T05:48:59.652Z,0.55
2023-03-13T05:51:26.490Z,0.45
2023-03-13T05:53:53.357Z,0.55
2023-03-13T05:56:20.168Z,0.50
2023-03-13T05:58:46.891Z,0.47
2023-03-13T06:01:14.419Z,0.63
2023-03-13T06:03:41.351Z,0.40
2023-03-13T06:06:09.322Z,0.30
2023-03-13T06:08:36.059Z,0.28
2023-03-13T06:11:03.589Z,0.20
2023-03-13T06:13:30.468Z,0.50
2023-03-13T06:15:58.274Z,0.65
2023-03-13T06:18:26.116Z,0.30
2023-03-13T06:21:03.498Z,0.70
2023-03-13T06:23:30.367Z,0.45
2023-03-13T06:25:57.193Z,0.30
2023-03-13T06:28:24.236Z,0.30
2023-03-13T06:30:50.911Z,0.60
2023-03-13T06:33:17.740Z,0.30
2023-03-13T06:35:55.898Z,0.40
2023-03-13T06:38:27.022Z,0.30
2023-03-13T06:40:53.996Z,0.40
2023-03-13T06:43:21.332Z,0.55
2023-03-13T06:45:48.238Z,0.20
2023-03-13T06:48:15.024Z,0.50
2023-03-13T06:50:42.250Z,0.43
2023-03-13T06:53:17.985Z,0.70
2023-03-13T06:55:45.025Z,0.40
2023-03-13T06:58:25.045Z,0.28
2023-03-13T07:00:55.901Z,0.50
2023-03-13T07:03:22.903Z,0.60
2023-03-13T07:05:49.576Z,0.32
2023-03-13T07:08:16.396Z,0.20
2023-03-13T07:10:43.586Z,0.38
2023-03-13T07:13:10.390Z,0.38
2023-03-13T07:15:37.104Z,0.28
2023-03-13T07:18:03.894Z,0.30
2023-03-13T07:20:30.861Z,0.40
2023-03-13T07:22:57.593Z,0.38
2023-03-13T07:25:24.384Z,0.95
2023-03-13T07:27:53.394Z,0.50
2023-03-13T07:30:20.484Z,0.70
2023-03-13T07:32:47.311Z,0.70
2023-03-13T07:35:14.117Z,0.45
2023-03-13T07:37:41.199Z,0.40
2023-03-13T07:40:12.754Z,0.40
2023-03-13T07:42:42.804Z,0.47
2023-03-13T07:45:10.804Z,0.50
2023-03-13T07:47:37.731Z,0.60
2023-03-13T07:50:04.813Z,0.40
2023-03-13T07:52:31.780Z,0.30
2023-03-13T07:54:58.568Z,0.40
2023-03-13T07:57:25.341Z,0.50
2023-03-13T07:59:53.553Z,0.50
2023-03-13T08:02:20.412Z,0.50
2023-03-13T08:04:47.184Z,0.35
2023-03-13T08:07:13.894Z,0.60
2023-03-13T08:09:41.579Z,0.50
2023-03-13T08:12:09.006Z,0.50
2023-03-13T08:14:35.714Z,0.57
2023-03-13T08:17:02.555Z,0.40
2023-03-13T08:19:29.545Z,0.30
2023-03-13T08:21:56.440Z,0.40
2023-03-13T08:24:23.382Z,0.22
2023-03-13T08:26:50.220Z,0.70
2023-03-13T08:29:17.187Z,0.60
2023-03-13T08:31:52.624Z,0.60
2023-03-13T08:34:19.904Z,0.80
2023-03-13T08:36:47.057Z,0.60
2023-03-13T08:39:16.048Z,0.40
2023-03-13T08:41:43.195Z,0.73
2023-03-13T08:44:20.617Z,0.40
2023-03-13T08:46:49.312Z,0.70
2023-03-13T08:49:17.794Z,0.63
2023-03-13T08:51:44.742Z,0.65
2023-03-13T08:54:11.507Z,0.50
2023-03-13T08:56:38.315Z,0.52
2023-03-13T08:59:06.287Z,0.60
2023-03-13T09:01:34.518Z,0.40
2023-03-13T09:04:04.175Z,0.50
2023-03-13T09:06:32.136Z,0.30
2023-03-13T09:08:59.011Z,0.70
2023-03-13T09:11:26.099Z,0.60
2023-03-13T09:13:53.162Z,0.70
2023-03-13T09:16:22.040Z,0.50
2023-03-13T09:18:49.413Z,0.52
2023-03-13T09:21:18.330Z,0.63
2023-03-13T09:23:45.175Z,0.75
2023-03-13T09:26:12.289Z,0.63
2023-03-13T09:28:39.435Z,0.52
2023-03-13T09:31:08.107Z,0.50
2023-03-13T09:33:35.262Z,0.73
2023-03-13T09:36:02.166Z,0.63
2023-03-13T09:38:29.057Z,0.70
2023-03-13T09:41:05.612Z,0.60
2023-03-13T09:44:09.909Z,0.50
2023-03-13T09:46:38.645Z,0.60
2023-03-13T09:49:18.318Z,0.60
2023-03-13T09:51:47.860Z,0.50
2023-03-13T09:54:27.504Z,0.50
2023-03-13T09:57:10.961Z,0.65
2023-03-13T09:59:43.761Z,0.50
2023-03-13T10:02:25.681Z,0.70
2023-03-13T10:04:57.077Z,0.65
2023-03-13T10:07:24.012Z,0.55
2023-03-13T10:09:50.939Z,0.60
2023-03-13T10:12:25.502Z,1.00
2023-03-13T10:15:21.576Z,0.65
2023-03-13T10:17:48.780Z,0.82
2023-03-13T10:20:30.140Z,0.70
2023-03-13T10:23:15.708Z,0.60
2023-03-13T10:25:42.597Z,0.90
2023-03-13T10:28:14.472Z,1.52
2023-03-13T10:30:54.523Z,0.90
2023-03-13T10:33:29.052Z,0.88
2023-03-13T10:36:12.917Z,1.08
2023-03-13T10:38:52.176Z,0.93
2023-03-13T10:41:23.287Z,0.80
2023-03-13T10:44:14.400Z,1.00
2023-03-13T10:46:43.388Z,0.70
2023-03-13T10:49:21.294Z,0.80
2023-03-13T10:51:55.776Z,0.80
2023-03-13T10:54:27.631Z,0.75
2023-03-13T10:57:26.488Z,1.23
2023-03-13T10:59:53.547Z,0.95
2023-03-13T11:02:23.395Z,0.70
2023-03-13T11:04:56.501Z,1.00
2023-03-13T11:07:28.171Z,0.70
2023-03-13T11:10:30.029Z,0.70
2023-03-13T11:12:58.237Z,1.00
2023-03-13T11:15:33.452Z,1.20
2023-03-13T11:18:06.359Z,0.80
2023-03-13T11:20:38.892Z,0.98
2023-03-13T11:23:18.759Z,1.00
2023-03-13T11:26:09.756Z,0.90
2023-03-13T11:28:46.040Z,1.20
2023-03-13T11:31:43.009Z,1.00
2023-03-13T11:34:25.908Z,1.00
2023-03-13T11:36:56.553Z,1.42
2023-03-13T11:39:44.636Z,0.73
2023-03-13T11:42:44.293Z,0.90
2023-03-13T11:45:32.627Z,0.90
2023-03-13T11:48:08.368Z,1.48
2023-03-13T11:50:38.105Z,1.33
2023-03-13T11:53:28.414Z,1.20
2023-03-13T11:56:18.269Z,0.80
2023-03-13T11:58:50.969Z,1.20
2023-03-13T12:01:19.259Z,0.90
2023-03-13T12:04:06.616Z,1.23
2023-03-13T12:06:35.563Z,0.90
2023-03-13T12:09:10.503Z,0.88
2023-03-13T12:11:43.844Z,0.80
2023-03-13T12:14:17.339Z,1.00
2023-03-13T12:16:47.448Z,0.73
2023-03-13T12:19:17.827Z,0.85
2023-03-13T12:21:53.702Z,0.88
2023-03-13T12:24:40.612Z,0.90
2023-03-13T12:27:33.703Z,0.75
2023-03-13T12:30:00.339Z,1.08
2023-03-13T12:32:33.306Z,0.80
2023-03-13T12:35:28.986Z,0.88
2023-03-13T12:38:34.710Z,0.60
2023-03-13T12:41:24.822Z,1.02
2023-03-13T12:44:09.680Z,0.70
2023-03-13T12:46:41.679Z,0.60
2023-03-13T12:49:33.250Z,0.88
2023-03-13T12:52:22.583Z,0.60
2023-03-13T12:55:04.532Z,0.82
2023-03-13T12:57:55.799Z,0.60
2023-03-13T13:00:24.073Z,0.55
2023-03-13T13:03:11.244Z,0.50
2023-03-13T13:05:38.061Z,0.65
2023-03-13T13:08:05.165Z,0.73
2023-03-13T13:10:31.898Z,0.60
2023-03-13T13:13:14.075Z,0.60
2023-03-13T13:16:20.568Z,0.45
2023-03-13T13:18:47.573Z,1.02
2023-03-13T13:21:18.132Z,0.73
2023-03-13T13:23:50.124Z,0.40
2023-03-13T13:26:29.823Z,0.52
2023-03-13T13:29:00.672Z,0.60
2023-03-13T13:31:50.917Z,0.68
2023-03-13T13:34:32.436Z,0.65
2023-03-13T13:37:12.436Z,0.50
2023-03-13T13:39:48.325Z,0.80
2023-03-13T13:42:33.217Z,0.60
2023-03-13T13:45:15.170Z,0.77
2023-03-13T13:47:46.215Z,0.60
2023-03-13T13:50:21.197Z,0.52
2023-03-13T13:52:48.644Z,0.50
2023-03-13T13:55:40.363Z,0.45
2023-03-13T13:58:30.270Z,0.57
2023-03-13T14:01:01.764Z,0.65
2023-03-13T14:03:31.072Z,0.47
2023-03-13T14:06:03.935Z,0.70
2023-03-13T14:08:31.922Z,0.50
2023-03-13T14:11:34.261Z,0.60
2023-03-13T14:14:18.548Z,0.53
2023-03-13T14:16:47.109Z,0.40
2023-03-13T14:19:41.837Z,0.55
2023-03-13T14:22:10.876Z,0.65
2023-03-13T14:24:37.761Z,0.73
2023-03-13T14:27:18.417Z,0.40
2023-03-13T14:30:07.058Z,0.50
2023-03-13T14:32:33.918Z,0.77
2023-03-13T14:35:00.980Z,0.63
2023-03-13T14:37:35.490Z,0.60
2023-03-13T14:40:09.661Z,0.60
2023-03-13T14:42:42.708Z,1.25
2023-03-13T14:45:16.643Z,0.55
2023-03-13T14:47:43.357Z,0.50
2023-03-13T14:50:12.138Z,0.50
2023-03-13T14:52:43.829Z,0.80
2023-03-13T14:55:22.691Z,0.60
2023-03-13T14:58:18.748Z,0.70
2023-03-13T15:00:47.088Z,0.70
2023-03-13T15:03:23.053Z,0.70
2023-03-13T15:06:01.695Z,0.55
2023-03-13T15:08:28.903Z,0.60
2023-03-13T15:10:55.817Z,0.80
2023-03-13T15:13:34.771Z,0.90
2023-03-13T15:16:02.258Z,0.70
2023-03-13T15:18:31.200Z,0.70
2023-03-13T15:21:22.615Z,0.75
2023-03-13T15:24:12.803Z,0.82
2023-03-13T15:26:39.632Z,0.80
2023-03-13T15:29:06.455Z,0.70
2023-03-13T15:31:33.330Z,0.55
2023-03-13T15:34:00.988Z,0.80
2023-03-13T15:36:28.987Z,0.95
2023-03-13T15:38:55.920Z,0.90
2023-03-13T15:41:23.226Z,0.70
2023-03-13T15:43:55.502Z,0.50
2023-03-13T15:46:24.571Z,1.45
2023-03-13T15:48:51.699Z,1.05
2023-03-13T15:51:18.500Z,0.60
2023-03-13T15:53:46.534Z,0.80
2023-03-13T15:56:23.153Z,0.80
2023-03-13T15:58:51.196Z,1.20
2023-03-13T16:01:18.692Z,0.70
2023-03-13T16:03:45.593Z,0.47
2023-03-13T16:06:16.778Z,0.52
2023-03-13T16:08:44.320Z,0.70
2023-03-13T16:11:14.137Z,0.88
2023-03-13T16:13:40.898Z,0.95
2023-03-13T16:16:20.622Z,1.00
2023-03-13T16:18:52.653Z,0.60
2023-03-13T16:21:25.969Z,0.70
2023-03-13T16:23:53.171Z,0.60
2023-03-13T16:26:22.712Z,0.68
2023-03-13T16:28:50.021Z,0.95
2023-03-13T16:31:21.835Z,1.02
2023-03-13T16:33:50.641Z,0.80
2023-03-13T16:36:21.673Z,0.75
2023-03-13T16:38:48.890Z,0.93
2023-03-13T16:41:17.512Z,1.10
2023-03-13T16:43:44.658Z,0.85
2023-03-13T16:46:15.875Z,1.00
2023-03-13T16:48:43.275Z,0.98
2023-03-13T16:51:21.883Z,1.00
2023-03-13T16:53:50.017Z,1.25
2023-03-13T16:56:33.789Z,1.05
2023-03-13T16:59:01.842Z,1.50
2023-03-13T17:01:29.260Z,1.80
2023-03-13T17:03:56.913Z,2.30
2023-03-13T17:06:29.318Z,1.85
2023-03-13T17:08:56.524Z,3.67
2023-03-13T17:11:23.670Z,3.70
2023-03-13T17:13:52.329Z,2.03
2023-03-13T17:16:25.091Z,1.27
2023-03-13T17:21:24.636Z,1.52
2023-03-13T17:23:51.895Z,1.90
2023-03-13T17:26:29.741Z,5.15
2023-03-13T17:28:57.293Z,3.85
2023-03-13T17:31:25.215Z,3.55
2023-03-13T17:33:52.039Z,2.60
2023-03-13T17:36:28.160Z,1.90
2023-03-13T17:38:57.488Z,1.35
2023-03-13T17:41:26.378Z,1.23
2023-03-13T17:43:53.165Z,1.15
2023-03-13T17:46:25.050Z,1.23
2023-03-13T17:48:53.257Z,1.53
2023-03-13T17:51:22.666Z,1.50
2023-03-13T17:53:49.916Z,2.00
2023-03-13T17:56:21.462Z,2.00
2023-03-13T17:58:50.436Z,1.50
2023-03-13T18:01:21.829Z,1.75
2023-03-13T18:03:49.253Z,1.60
2023-03-13T18:06:33.705Z,2.30
2023-03-13T18:09:08.151Z,1.80
2023-03-13T18:11:36.701Z,2.00
2023-03-13T18:14:04.376Z,1.67
2023-03-13T18:16:37.809Z,2.13
2023-03-13T18:19:06.091Z,2.00
2023-03-13T18:21:33.301Z,1.88
2023-03-13T18:24:00.219Z,2.00
2023-03-13T18:26:30.884Z,1.60
2023-03-13T18:29:01.531Z,1.63
2023-03-13T18:31:36.267Z,2.33
2023-03-13T18:34:04.833Z,2.83
2023-03-13T18:36:31.657Z,1.27
2023-03-13T18:38:58.732Z,1.13
2023-03-13T18:41:25.900Z,0.82
2023-03-13T18:43:52.985Z,1.20
2023-03-13T18:46:28.100Z,1.60
2023-03-13T18:48:55.469Z,1.30
2023-03-13T18:51:24.940Z,1.40
2023-03-13T18:53:52.783Z,1.10
2023-03-13T18:56:28.960Z,1.35
2023-03-13T18:58:56.392Z,1.52
2023-03-13T19:01:25.001Z,1.42
2023-03-13T19:03:52.188Z,1.60
2023-03-13T19:06:35.588Z,1.58
2023-03-13T19:09:41.110Z,2.78
2023-03-13T19:12:02.657Z,2.25
2023-03-13T19:14:29.460Z,2.33
2023-03-13T19:16:57.772Z,1.63
2023-03-13T19:19:25.266Z,2.25
2023-03-13T19:21:53.089Z,1.92
2023-03-13T19:24:22.194Z,1.90
2023-03-13T19:26:58.368Z,2.03
2023-03-13T19:29:27.329Z,2.25
2023-03-13T19:31:55.050Z,2.20
2023-03-13T19:34:22.051Z,1.90
2023-03-13T19:36:49.508Z,1.50
2023-03-13T19:39:22.475Z,1.90
2023-03-13T19:44:16.939Z,2.95
2023-03-13T19:46:44.087Z,3.20
2023-03-13T19:49:12.318Z,4.20
2023-03-13T19:51:39.084Z,4.32
2023-03-13T19:54:06.301Z,3.17
2023-03-13T19:56:33.269Z,2.65
2023-03-13T19:59:05.629Z,2.72
2023-03-13T20:01:32.635Z,2.40
2023-03-13T20:03:59.462Z,2.40
2023-03-13T20:06:30.762Z,3.03
2023-03-13T20:08:59.298Z,2.90
2023-03-13T20:11:26.574Z,2.67
2023-03-13T20:13:53.640Z,2.25
2023-03-13T20:16:20.973Z,2.30
2023-03-13T20:18:51.072Z,2.40
2023-03-13T20:21:18.664Z,1.73
2023-03-13T20:23:46.577Z,0.70
2023-03-13T20:26:14.732Z,0.60
2023-03-13T20:28:44.049Z,0.77
2023-03-13T20:31:11.133Z,0.50
2023-03-13T20:33:38.273Z,0.40
2023-03-13T20:36:07.522Z,0.50
2023-03-13T20:38:35.005Z,0.70
2023-03-13T20:41:02.069Z,0.50
2023-03-13T20:43:29.704Z,0.40
2023-03-13T20:45:56.689Z,0.50
2023-03-13T20:48:26.234Z,0.77
2023-03-13T20:50:54.125Z,0.80
2023-03-13T20:53:21.162Z,0.50
2023-03-13T20:55:48.571Z,0.75
2023-03-13T20:58:16.745Z,0.70
2023-03-13T21:00:43.898Z,0.88
2023-03-13T21:03:10.638Z,0.70
2023-03-13T21:05:41.025Z,0.95
2023-03-13T21:08:08.963Z,0.85
2023-03-13T21:10:40.409Z,1.08
2023-03-13T21:13:07.848Z,0.90
2023-03-13T21:15:35.106Z,1.05
2023-03-13T21:18:02.083Z,1.00
2023-03-13T21:20:29.432Z,0.77
2023-03-13T21:22:56.261Z,0.90
2023-03-13T21:25:23.429Z,1.35
2023-03-13T21:27:50.546Z,1.10
2023-03-13T21:30:19.621Z,0.85
2023-03-13T21:32:47.426Z,1.17
2023-03-13T21:35:15.255Z,0.98
2023-03-13T21:37:42.931Z,0.90
2023-03-13T21:40:10.639Z,0.77
2023-03-13T21:42:37.775Z,0.95
2023-03-13T21:45:05.848Z,0.75
2023-03-13T21:47:36.988Z,0.80
2023-03-13T21:50:06.267Z,0.90
2023-03-13T21:52:38.308Z,0.80
2023-03-13T21:55:07.807Z,0.85
2023-03-13T21:57:34.761Z,0.90
2023-03-13T22:00:01.838Z,0.60
2023-03-13T22:02:29.365Z,0.63
2023-03-13T22:04:56.262Z,0.50
2023-03-13T22:07:24.157Z,0.57
2023-03-13T22:09:50.898Z,0.50
2023-03-13T22:12:18.371Z,0.60
2023-03-13T22:14:45.301Z,0.57
2023-03-13T22:17:17.004Z,0.52
2023-03-13T22:19:43.734Z,0.60
2023-03-13T22:22:10.539Z,0.50
2023-03-13T22:24:37.604Z,0.57
2023-03-13T22:27:04.451Z,0.88
2023-03-13T22:29:32.662Z,0.80
2023-03-13T22:31:59.528Z,0.68
2023-03-13T22:34:26.511Z,0.40
2023-03-13T22:36:53.346Z,0.70
2023-03-13T22:39:20.191Z,1.10
2023-03-13T22:41:46.950Z,1.60
2023-03-13T22:44:13.691Z,0.60
2023-03-13T22:46:40.411Z,0.40
2023-03-13T22:49:07.217Z,0.60
2023-03-13T22:51:33.885Z,0.80
2023-03-13T22:54:00.808Z,0.60
2023-03-13T22:56:27.880Z,0.40
2023-03-13T22:58:54.678Z,0.63
2023-03-13T23:01:23.022Z,0.60
2023-03-13T23:03:49.966Z,0.55
2023-03-13T23:06:19.381Z,0.70
2023-03-13T23:08:46.254Z,0.60
2023-03-13T23:11:13.090Z,0.80
2023-03-13T23:13:39.862Z,0.60
2023-03-13T23:16:08.044Z,0.60
2023-03-13T23:18:35.002Z,0.60
2023-03-13T23:21:05.510Z,0.50
2023-03-13T23:23:33.214Z,0.60
2023-03-13T23:26:01.103Z,1.00
2023-03-13T23:28:28.132Z,0.73
2023-03-13T23:30:54.951Z,0.90
2023-03-13T23:33:21.719Z,0.88
2023-03-13T23:35:48.498Z,0.90
2023-03-13T23:38:18.519Z,0.70
2023-03-13T23:40:45.293Z,0.30
2023-03-13T23:43:12.039Z,0.70
2023-03-13T23:45:38.784Z,0.55
2023-03-13T23:48:05.748Z,0.47
2023-03-13T23:50:32.425Z,0.40
2023-03-13T23:52:59.158Z,0.50
2023-03-13T23:55:25.877Z,0.45
2023-03-13T23:57:52.576Z,0.55
